createdAt,value
2023-08-06T00:02:17.614Z,5.85
2023-08-06T00:04:44.763Z,5.53
2023-08-06T00:07:11.689Z,5.40
2023-08-06T00:09:38.713Z,5.10
2023-08-06T00:12:06.311Z,5.72
2023-08-06T00:14:33.305Z,5.38
2023-08-06T00:17:00.556Z,5.32
2023-08-06T00:19:27.470Z,5.28
2023-08-06T00:21:55.178Z,5.47
2023-08-06T00:24:22.164Z,5.22
2023-08-06T00:26:49.051Z,5.40
2023-08-06T00:29:15.954Z,5.43
2023-08-06T00:31:42.863Z,5.07
2023-08-06T00:34:09.756Z,5.63
2023-08-06T00:36:36.730Z,5.38
2023-08-06T00:39:04.054Z,5.07
2023-08-06T00:41:31.041Z,4.82
2023-08-06T00:43:57.977Z,5.25
2023-08-06T00:46:25.393Z,4.57
2023-08-06T00:48:52.578Z,4.32
2023-08-06T00:51:20.615Z,4.80
2023-08-06T00:53:49.483Z,4.88
2023-08-06T00:56:16.826Z,5.13
2023-08-06T00:58:44.047Z,5.28
2023-08-06T01:01:11.157Z,5.20
2023-08-06T01:03:38.107Z,4.78
2023-08-06T01:06:05.994Z,4.90
2023-08-06T01:08:53.648Z,5.03
2023-08-06T01:11:55.289Z,4.82
2023-08-06T01:14:32.500Z,4.55
2023-08-06T01:17:01.375Z,4.93
2023-08-06T01:19:28.368Z,4.95
2023-08-06T01:21:55.461Z,4.75
2023-08-06T01:24:22.989Z,4.90
2023-08-06T01:27:09.663Z,5.00
2023-08-06T01:30:12.312Z,4.50
2023-08-06T01:32:45.287Z,5.25
2023-08-06T01:35:16.517Z,5.07
2023-08-06T01:37:44.727Z,4.68
2023-08-06T01:40:13.543Z,5.28
2023-08-06T01:42:41.426Z,4.70
2023-08-06T01:45:09.823Z,4.55
2023-08-06T01:47:37.486Z,4.60
2023-08-06T01:50:05.055Z,4.75
2023-08-06T01:52:32.044Z,4.55
2023-08-06T01:54:59.084Z,4.88
2023-08-06T01:57:26.052Z,4.55
2023-08-06T01:59:52.904Z,4.53
2023-08-06T02:02:19.832Z,4.63
2023-08-06T02:04:46.717Z,4.70
2023-08-06T02:07:13.650Z,4.78
2023-08-06T02:09:41.105Z,4.22
2023-08-06T02:12:08.590Z,4.78
2023-08-06T02:14:36.190Z,5.20
2023-08-06T02:17:03.146Z,4.70
2023-08-06T02:19:30.026Z,4.80
2023-08-06T02:21:57.260Z,4.53
2023-08-06T02:24:24.233Z,5.20
2023-08-06T02:26:52.592Z,4.45
2023-08-06T02:29:19.918Z,5.30
2023-08-06T02:31:46.876Z,5.40
2023-08-06T02:34:13.939Z,5.18
2023-08-06T02:36:40.823Z,4.68
2023-08-06T02:39:07.771Z,4.72
2023-08-06T02:41:34.811Z,4.20
2023-08-06T02:44:01.727Z,4.55
2023-08-06T02:46:28.702Z,4.80
2023-08-06T02:48:55.604Z,4.50
2023-08-06T02:51:22.486Z,4.70
2023-08-06T02:53:50.652Z,4.68
2023-08-06T02:56:17.584Z,4.85
2023-08-06T02:58:44.586Z,4.68
2023-08-06T03:01:11.629Z,4.88
2023-08-06T03:03:38.611Z,4.35
2023-08-06T03:06:05.860Z,5.15
2023-08-06T03:08:32.860Z,4.70
2023-08-06T03:10:59.847Z,4.38
2023-08-06T03:13:27.072Z,4.40
2023-08-06T03:15:59.818Z,4.40
2023-08-06T03:18:27.448Z,4.60
2023-08-06T03:20:55.240Z,4.75
2023-08-06T03:23:22.498Z,4.75
2023-08-06T03:25:49.447Z,4.43
2023-08-06T03:28:16.392Z,4.63
2023-08-06T03:30:43.386Z,4.65
2023-08-06T03:33:10.280Z,4.78
2023-08-06T03:35:37.190Z,5.07
2023-08-06T03:38:04.122Z,5.07
2023-08-06T03:40:31.089Z,4.75
2023-08-06T03:42:58.049Z,4.30
2023-08-06T03:45:24.980Z,5.32
2023-08-06T03:47:51.898Z,4.93
2023-08-06T03:50:18.878Z,5.15
2023-08-06T03:52:45.772Z,5.47
2023-08-06T03:55:12.715Z,4.72
2023-08-06T03:57:39.638Z,5.30
2023-08-06T04:00:08.356Z,6.15
2023-08-06T04:02:35.311Z,5.03
2023-08-06T04:05:02.654Z,5.50
2023-08-06T04:07:29.739Z,4.75
2023-08-06T04:10:00.320Z,4.60
2023-08-06T04:12:28.126Z,4.55
2023-08-06T04:14:55.727Z,4.40
2023-08-06T04:17:23.401Z,4.10
2023-08-06T04:19:55.621Z,5.18
2023-08-06T04:22:23.014Z,4.70
2023-08-06T04:24:49.995Z,4.45
2023-08-06T04:27:18.732Z,4.53
2023-08-06T04:29:45.762Z,4.47
2023-08-06T04:32:14.023Z,4.88
2023-08-06T04:34:41.026Z,5.25
2023-08-06T04:37:08.456Z,5.80
2023-08-06T04:39:35.341Z,4.60
2023-08-06T04:42:02.194Z,4.32
2023-08-06T04:44:29.321Z,4.63
2023-08-06T04:46:56.286Z,4.65
2023-08-06T04:49:23.740Z,4.68
2023-08-06T04:51:51.145Z,4.90
2023-08-06T04:54:18.355Z,4.57
2023-08-06T04:56:45.278Z,4.60
2023-08-06T04:59:12.116Z,5.03
2023-08-06T05:01:39.127Z,4.80
2023-08-06T05:04:06.138Z,5.00
2023-08-06T05:06:33.153Z,4.75
2023-08-06T05:09:00.122Z,5.20
2023-08-06T05:11:27.121Z,5.47
2023-08-06T05:13:54.010Z,5.53
2023-08-06T05:16:21.015Z,5.40
2023-08-06T05:18:48.156Z,4.70
2023-08-06T05:21:15.137Z,5.13
2023-08-06T05:23:41.999Z,4.40
2023-08-06T05:26:08.908Z,4.35
2023-08-06T05:28:36.190Z,4.00
2023-08-06T05:31:06.344Z,4.00
2023-08-06T05:33:33.282Z,4.28
2023-08-06T05:36:00.234Z,3.60
2023-08-06T05:38:27.546Z,3.70
2023-08-06T05:40:54.483Z,4.32
2023-08-06T05:43:21.411Z,3.55
2023-08-06T05:45:51.157Z,4.25
2023-08-06T05:48:18.408Z,3.70
2023-08-06T05:50:45.332Z,4.28
2023-08-06T05:53:12.210Z,3.58
2023-08-06T05:55:40.384Z,3.25
2023-08-06T05:58:07.402Z,3.80
2023-08-06T06:00:34.403Z,3.40
2023-08-06T06:03:01.363Z,3.38
2023-08-06T06:05:28.215Z,4.05
2023-08-06T06:07:55.195Z,3.38
2023-08-06T06:10:22.119Z,3.17
2023-08-06T06:12:49.107Z,3.50
2023-08-06T06:15:16.067Z,3.35
2023-08-06T06:17:42.995Z,3.20
2023-08-06T06:20:10.371Z,3.38
2023-08-06T06:22:37.299Z,3.47
2023-08-06T06:25:04.720Z,3.60
2023-08-06T06:27:31.623Z,3.45
2023-08-06T06:29:58.547Z,3.13
2023-08-06T06:32:26.376Z,3.38
2023-08-06T06:34:53.344Z,3.17
2023-08-06T06:37:20.273Z,2.85
2023-08-06T06:39:47.113Z,2.38
2023-08-06T06:42:20.845Z,2.25
2023-08-06T06:44:47.808Z,2.00
2023-08-06T06:47:14.930Z,2.00
2023-08-06T06:49:41.830Z,1.50
2023-08-06T06:52:08.946Z,1.80
2023-08-06T06:54:35.922Z,1.80
2023-08-06T06:57:02.883Z,1.50
2023-08-06T06:59:30.042Z,1.50
2023-08-06T07:01:57.148Z,1.50
2023-08-06T07:04:24.255Z,0.93
2023-08-06T07:06:53.123Z,1.05
2023-08-06T07:09:20.074Z,0.95
2023-08-06T07:11:47.119Z,0.98
2023-08-06T07:14:15.595Z,0.70
2023-08-06T07:16:42.823Z,0.77
2023-08-06T07:19:09.898Z,1.00
2023-08-06T07:21:37.137Z,1.00
2023-08-06T07:24:04.545Z,0.90
2023-08-06T07:26:31.646Z,0.80
2023-08-06T07:28:59.757Z,0.77
2023-08-06T07:31:26.940Z,0.88
2023-08-06T07:33:54.032Z,0.88
2023-08-06T07:36:22.154Z,0.77
2023-08-06T07:38:52.683Z,0.68
2023-08-06T07:41:19.669Z,0.70
2023-08-06T07:43:47.546Z,0.60
2023-08-06T07:46:14.676Z,0.60
2023-08-06T07:48:41.961Z,0.60
2023-08-06T07:51:08.871Z,0.68
2023-08-06T07:53:35.741Z,0.60
2023-08-06T07:56:03.438Z,1.17
2023-08-06T07:58:30.983Z,0.90
2023-08-06T08:00:57.867Z,0.88
2023-08-06T08:03:25.137Z,0.60
2023-08-06T08:05:59.292Z,0.50
2023-08-06T08:08:27.000Z,0.60
2023-08-06T08:10:53.944Z,0.50
2023-08-06T08:13:20.748Z,0.50
2023-08-06T08:15:47.718Z,0.45
2023-08-06T08:18:14.687Z,0.47
2023-08-06T08:20:41.546Z,0.45
2023-08-06T08:23:08.591Z,0.47
2023-08-06T08:25:35.454Z,0.65
2023-08-06T08:28:02.377Z,0.60
2023-08-06T08:30:29.503Z,0.60
2023-08-06T08:32:56.467Z,1.33
2023-08-06T08:35:23.422Z,0.65
2023-08-06T08:37:51.244Z,0.50
2023-08-06T08:40:18.716Z,0.40
2023-08-06T08:42:46.086Z,0.40
2023-08-06T08:45:15.989Z,0.22
2023-08-06T08:47:44.326Z,0.20
2023-08-06T08:50:12.618Z,0.50
2023-08-06T08:52:41.591Z,0.40
2023-08-06T08:55:09.813Z,0.30
2023-08-06T08:57:37.128Z,0.40
2023-08-06T09:00:06.102Z,0.60
2023-08-06T09:02:35.192Z,0.60
2023-08-06T09:05:05.663Z,0.73
2023-08-06T09:07:44.079Z,0.70
2023-08-06T09:10:16.072Z,1.00
2023-08-06T09:12:43.911Z,0.90
2023-08-06T09:15:10.943Z,1.00
2023-08-06T09:17:38.421Z,1.30
2023-08-06T09:20:15.885Z,1.30
2023-08-06T09:22:43.186Z,1.42
2023-08-06T09:25:14.997Z,1.30
2023-08-06T09:27:42.049Z,1.35
2023-08-06T09:30:09.524Z,1.13
2023-08-06T09:32:52.581Z,1.77
2023-08-06T09:35:20.190Z,1.80
2023-08-06T09:37:49.114Z,1.98
2023-08-06T09:40:33.043Z,1.85
2023-08-06T09:43:03.467Z,1.67
2023-08-06T09:45:41.267Z,1.67
2023-08-06T09:48:10.657Z,1.27
2023-08-06T09:50:40.188Z,1.02
2023-08-06T09:53:09.894Z,1.23
2023-08-06T09:55:37.426Z,1.00
2023-08-06T09:58:06.664Z,1.40
2023-08-06T10:00:39.444Z,1.30
2023-08-06T10:03:10.656Z,1.30
2023-08-06T10:05:39.703Z,1.75
2023-08-06T10:08:08.146Z,1.25
2023-08-06T10:10:36.494Z,1.13
2023-08-06T10:13:07.823Z,1.30
2023-08-06T10:15:35.357Z,1.65
2023-08-06T10:18:03.738Z,1.75
2023-08-06T10:20:35.976Z,2.00
2023-08-06T10:23:08.194Z,2.00
2023-08-06T10:25:40.917Z,2.38
2023-08-06T10:28:19.144Z,2.28
2023-08-06T10:30:48.250Z,2.70
2023-08-06T10:33:17.041Z,2.38
2023-08-06T10:35:50.994Z,2.55
2023-08-06T10:38:24.020Z,2.60
2023-08-06T10:40:54.747Z,2.13
2023-08-06T10:43:40.080Z,2.30
2023-08-06T10:46:28.537Z,2.20
2023-08-06T10:48:55.828Z,2.50
2023-08-06T10:51:23.326Z,1.95
2023-08-06T10:53:52.256Z,1.98
2023-08-06T10:56:24.456Z,1.90
2023-08-06T10:58:55.794Z,1.90
2023-08-06T11:01:25.020Z,1.83
2023-08-06T11:03:54.576Z,1.60
2023-08-06T11:06:23.645Z,1.60
2023-08-06T11:08:55.452Z,1.40
2023-08-06T11:11:24.920Z,1.67
2023-08-06T11:13:53.453Z,1.25
2023-08-06T11:16:28.109Z,1.52
2023-08-06T11:18:57.526Z,1.92
2023-08-06T11:21:26.041Z,1.50
2023-08-06T11:23:54.561Z,1.83
2023-08-06T11:26:22.560Z,2.00
2023-08-06T11:28:50.301Z,2.70
2023-08-06T11:31:25.048Z,4.03
2023-08-06T11:33:53.508Z,2.70
2023-08-06T11:36:43.077Z,2.10
2023-08-06T11:39:10.946Z,3.20
2023-08-06T11:41:42.045Z,2.35
2023-08-06T11:44:14.879Z,1.20
2023-08-06T11:46:57.728Z,0.82
2023-08-06T11:50:06.059Z,0.60
2023-08-06T12:05:18.069Z,1.00
2023-08-06T12:07:52.380Z,1.83
2023-08-06T12:10:21.886Z,1.10
2023-08-06T12:12:49.178Z,1.73
2023-08-06T12:15:16.347Z,1.65
2023-08-06T12:17:43.702Z,2.10
2023-08-06T12:20:11.808Z,2.20
2023-08-06T12:22:42.221Z,1.50
2023-08-06T12:25:12.861Z,0.60
2023-08-06T12:27:42.803Z,0.70
2023-08-06T12:30:11.082Z,0.80
2023-08-06T12:32:39.155Z,0.40
2023-08-06T12:35:08.554Z,1.13
2023-08-06T12:37:36.735Z,0.43
2023-08-06T12:40:23.631Z,0.40
2023-08-06T12:42:52.148Z,0.85
2023-08-06T12:45:22.352Z,1.08
2023-08-06T12:47:50.843Z,0.35
2023-08-06T12:50:18.552Z,0.50
2023-08-06T12:52:45.967Z,0.45
2023-08-06T12:55:12.925Z,1.20
2023-08-06T12:57:56.028Z,0.80
2023-08-06T13:00:27.431Z,0.50
2023-08-06T13:02:54.692Z,0.60
2023-08-06T13:05:21.952Z,0.45
2023-08-06T13:07:48.913Z,0.70
2023-08-06T13:10:16.294Z,0.85
2023-08-06T13:12:43.321Z,0.60
2023-08-06T13:15:10.908Z,0.68
2023-08-06T13:17:39.244Z,0.70
2023-08-06T13:20:07.413Z,1.10
2023-08-06T13:22:34.474Z,0.98
2023-08-06T13:25:01.444Z,0.80
2023-08-06T13:27:28.384Z,1.00
2023-08-06T13:29:55.351Z,1.15
2023-08-06T13:32:22.253Z,0.90
2023-08-06T13:34:49.141Z,1.10
2023-08-06T13:37:16.094Z,0.60
2023-08-06T13:39:43.040Z,0.85
2023-08-06T13:42:10.182Z,0.98
2023-08-06T13:44:37.552Z,1.20
2023-08-06T13:47:04.723Z,1.02
2023-08-06T13:49:31.665Z,1.20
2023-08-06T13:52:11.849Z,0.90
2023-08-06T13:54:43.184Z,0.90
2023-08-06T13:57:10.097Z,0.90
2023-08-06T13:59:37.128Z,0.90
2023-08-06T14:02:04.266Z,1.10
2023-08-06T14:04:31.604Z,0.88
2023-08-06T14:06:58.501Z,0.88
2023-08-06T14:09:25.736Z,0.90
2023-08-06T14:11:52.903Z,1.10
2023-08-06T14:14:19.831Z,1.10
2023-08-06T14:16:46.759Z,1.13
2023-08-06T14:19:13.701Z,0.98
2023-08-06T14:21:41.160Z,0.90
2023-08-06T14:24:08.113Z,0.90
2023-08-06T14:26:35.300Z,0.80
2023-08-06T14:29:02.979Z,0.70
2023-08-06T14:31:30.694Z,0.90
2023-08-06T14:33:57.684Z,0.90
2023-08-06T14:36:24.663Z,1.10
2023-08-06T14:38:59.666Z,0.90
2023-08-06T14:41:27.939Z,1.30
2023-08-06T14:43:55.487Z,1.00
2023-08-06T14:46:22.671Z,1.40
2023-08-06T14:48:49.626Z,1.30
2023-08-06T14:51:16.602Z,1.52
2023-08-06T14:53:43.681Z,1.38
2023-08-06T14:56:10.667Z,1.45
2023-08-06T14:58:37.847Z,1.30
2023-08-06T15:01:04.867Z,1.90
2023-08-06T15:03:32.652Z,1.85
2023-08-06T15:05:59.733Z,2.00
2023-08-06T15:08:26.936Z,1.92
2023-08-06T15:10:54.998Z,2.05
2023-08-06T15:13:22.430Z,1.95
2023-08-06T15:15:52.814Z,2.13
2023-08-06T15:18:20.384Z,1.92
2023-08-06T15:20:47.453Z,2.08
2023-08-06T15:23:15.589Z,2.15
2023-08-06T15:25:42.597Z,2.10
2023-08-06T15:28:09.569Z,2.22
2023-08-06T15:30:36.709Z,2.17
2023-08-06T15:33:04.042Z,1.88
2023-08-06T15:35:31.007Z,2.40
2023-08-06T15:37:57.912Z,2.45
2023-08-06T15:40:24.895Z,2.30
2023-08-06T15:42:51.844Z,1.92
2023-08-06T15:45:18.902Z,2.17
2023-08-06T15:47:45.978Z,2.15
2023-08-06T15:50:13.002Z,2.10
2023-08-06T15:52:39.968Z,2.03
2023-08-06T15:55:08.236Z,2.20
2023-08-06T15:57:36.169Z,2.28
2023-08-06T16:00:05.166Z,1.92
2023-08-06T16:02:32.110Z,1.95
2023-08-06T16:05:00.927Z,2.05
2023-08-06T16:07:28.775Z,2.20
2023-08-06T16:09:56.268Z,2.20
2023-08-06T16:12:23.744Z,2.15
2023-08-06T16:14:51.102Z,2.42
2023-08-06T16:17:18.218Z,2.60
2023-08-06T16:19:45.569Z,2.63
2023-08-06T16:22:12.719Z,2.72
2023-08-06T16:24:39.827Z,2.58
2023-08-06T16:27:06.835Z,2.97
2023-08-06T16:29:36.271Z,2.92
2023-08-06T16:32:05.538Z,2.88
2023-08-06T16:34:35.015Z,2.78
2023-08-06T16:37:01.943Z,2.75
2023-08-06T16:39:30.456Z,2.90
2023-08-06T16:42:00.017Z,2.22
2023-08-06T16:44:30.602Z,3.03
2023-08-06T16:46:57.637Z,3.22
2023-08-06T16:49:24.576Z,2.50
2023-08-06T16:51:51.446Z,2.95
2023-08-06T16:54:18.422Z,2.90
2023-08-06T16:56:45.365Z,3.33
2023-08-06T16:59:12.353Z,3.30
2023-08-06T17:01:40.850Z,3.53
2023-08-06T17:04:07.895Z,3.80
2023-08-06T17:06:34.912Z,3.53
2023-08-06T17:09:04.445Z,3.50
2023-08-06T17:11:34.979Z,3.60
2023-08-06T17:14:02.191Z,3.28
2023-08-06T17:16:29.189Z,3.50
2023-08-06T17:18:56.067Z,3.10
2023-08-06T17:21:23.010Z,3.35
2023-08-06T17:23:49.962Z,3.50
2023-08-06T17:26:16.953Z,3.38
2023-08-06T17:28:44.172Z,3.35
2023-08-06T17:31:12.087Z,3.10
2023-08-06T17:33:39.132Z,2.70
2023-08-06T17:36:06.151Z,3.08
2023-08-06T17:38:33.241Z,3.50
2023-08-06T17:41:01.205Z,3.15
2023-08-06T17:43:28.165Z,3.70
2023-08-06T17:45:55.048Z,2.75
2023-08-06T17:48:21.966Z,3.13
2023-08-06T17:50:48.930Z,3.28
2023-08-06T17:53:16.041Z,3.30
2023-08-06T17:55:43.053Z,3.13
2023-08-06T17:58:11.067Z,3.70
2023-08-06T18:00:38.235Z,3.28
2023-08-06T18:03:05.387Z,3.70
2023-08-06T18:05:34.032Z,3.35
2023-08-06T18:08:01.251Z,3.63
2023-08-06T18:10:28.759Z,3.75
2023-08-06T18:12:55.911Z,3.75
2023-08-06T18:15:23.056Z,3.30
2023-08-06T18:17:50.173Z,3.92
2023-08-06T18:20:17.359Z,3.75
2023-08-06T18:22:44.362Z,3.60
2023-08-06T18:25:11.440Z,3.75
2023-08-06T18:27:38.607Z,3.47
2023-08-06T18:30:06.633Z,3.47
2023-08-06T18:32:33.715Z,3.63
2023-08-06T18:35:00.700Z,3.33
2023-08-06T18:37:27.781Z,4.32
2023-08-06T18:40:02.267Z,4.25
2023-08-06T18:42:30.614Z,3.95
2023-08-06T18:44:57.700Z,4.10
2023-08-06T18:47:26.849Z,4.20
2023-08-06T18:49:54.270Z,4.35
2023-08-06T18:52:21.336Z,4.10
2023-08-06T18:54:48.450Z,4.20
2023-08-06T18:57:15.502Z,4.18
2023-08-06T18:59:42.587Z,4.13
2023-08-06T19:02:09.658Z,4.03
2023-08-06T19:04:36.854Z,4.20
2023-08-06T19:07:04.184Z,3.58
2023-08-06T19:09:31.235Z,3.50
2023-08-06T19:11:58.228Z,3.42
2023-08-06T19:14:26.893Z,3.28
2023-08-06T19:16:54.146Z,2.85
2023-08-06T19:19:21.442Z,2.42
2023-08-06T19:21:49.768Z,2.60
2023-08-06T19:24:16.875Z,2.33
2023-08-06T19:26:43.834Z,1.65
2023-08-06T19:29:10.890Z,1.80
2023-08-06T19:31:38.286Z,1.90
2023-08-06T19:34:05.630Z,1.90
2023-08-06T19:36:32.592Z,1.73
2023-08-06T19:38:59.593Z,1.70
2023-08-06T19:41:26.982Z,1.60
2023-08-06T19:43:53.869Z,1.00
2023-08-06T19:46:20.806Z,1.02
2023-08-06T19:48:47.838Z,1.10
2023-08-06T19:51:15.896Z,1.10
2023-08-06T19:53:43.915Z,0.85
2023-08-06T19:56:11.108Z,0.98
2023-08-06T19:58:38.156Z,1.00
2023-08-06T20:01:07.236Z,1.02
2023-08-06T20:03:35.533Z,1.08
2023-08-06T20:06:03.426Z,0.98
2023-08-06T20:08:32.549Z,0.82
2023-08-06T20:11:00.788Z,0.90
2023-08-06T20:13:27.900Z,0.90
2023-08-06T20:15:54.904Z,0.70
2023-08-06T20:18:27.398Z,0.63
2023-08-06T20:20:55.456Z,1.00
2023-08-06T20:23:23.216Z,0.70
2023-08-06T20:25:51.177Z,0.85
2023-08-06T20:28:18.256Z,0.70
2023-08-06T20:30:45.477Z,0.90
2023-08-06T20:33:12.966Z,0.80
2023-08-06T20:35:41.854Z,0.90
2023-08-06T20:38:09.996Z,0.75
2023-08-06T20:40:44.359Z,0.90
2023-08-06T20:43:12.452Z,1.50
2023-08-06T20:45:41.222Z,1.67
2023-08-06T20:48:08.625Z,2.20
2023-08-06T20:50:35.912Z,2.70
2023-08-06T20:53:02.962Z,3.17
2023-08-06T20:55:30.064Z,2.97
2023-08-06T20:57:57.036Z,3.35
2023-08-06T21:00:24.172Z,3.60
2023-08-06T21:02:51.156Z,3.55
2023-08-06T21:05:18.069Z,3.25
2023-08-06T21:07:45.171Z,3.40
2023-08-06T21:10:12.164Z,3.05
2023-08-06T21:12:39.210Z,3.40
2023-08-06T21:15:07.321Z,3.25
2023-08-06T21:17:34.238Z,3.53
2023-08-06T21:20:01.187Z,3.75
2023-08-06T21:22:28.129Z,3.25
2023-08-06T21:24:55.156Z,4.03
2023-08-06T21:27:22.911Z,3.80
2023-08-06T21:29:49.843Z,3.75
2023-08-06T21:32:17.327Z,3.55
2023-08-06T21:34:44.246Z,3.35
2023-08-06T21:37:11.198Z,3.20
2023-08-06T21:39:38.145Z,2.90
2023-08-06T21:42:05.553Z,2.40
2023-08-06T21:44:32.484Z,2.50
2023-08-06T21:46:59.887Z,2.25
2023-08-06T21:49:28.917Z,2.33
2023-08-06T21:51:57.548Z,2.10
2023-08-06T21:54:24.647Z,2.00
2023-08-06T21:56:51.678Z,1.80
2023-08-06T21:59:18.616Z,1.58
2023-08-06T22:01:45.643Z,1.25
2023-08-06T22:04:12.549Z,1.48
2023-08-06T22:06:39.541Z,1.60
2023-08-06T22:09:06.569Z,1.45
2023-08-06T22:11:33.716Z,1.40
2023-08-06T22:14:01.087Z,1.33
2023-08-06T22:16:28.206Z,1.30
2023-08-06T22:18:55.440Z,1.08
2023-08-06T22:21:22.337Z,1.30
2023-08-06T22:23:49.316Z,1.00
2023-08-06T22:26:16.240Z,1.05
2023-08-06T22:28:55.665Z,0.80
2023-08-06T22:31:27.972Z,0.93
2023-08-06T22:33:55.034Z,0.70
2023-08-06T22:36:22.097Z,1.00
2023-08-06T22:38:49.045Z,0.63
2023-08-06T22:41:15.940Z,0.60
2023-08-06T22:43:42.863Z,0.50
2023-08-06T22:46:09.806Z,0.80
2023-08-06T22:48:36.709Z,0.98
2023-08-06T22:51:03.758Z,0.70
2023-08-06T22:53:30.648Z,0.73
2023-08-06T22:56:08.493Z,0.80
2023-08-06T22:58:36.553Z,0.80
2023-08-06T23:01:03.443Z,0.70
2023-08-06T23:03:30.569Z,0.60
2023-08-06T23:05:57.572Z,0.70
2023-08-06T23:08:24.625Z,0.50
2023-08-06T23:10:51.594Z,0.50
2023-08-06T23:13:18.484Z,0.45
2023-08-06T23:15:45.493Z,0.40
2023-08-06T23:18:12.517Z,0.57
2023-08-06T23:20:39.581Z,0.43
2023-08-06T23:23:06.668Z,0.50
2023-08-06T23:25:37.036Z,0.50
2023-08-06T23:28:04.439Z,0.60
2023-08-06T23:30:31.547Z,0.63
2023-08-06T23:32:58.545Z,0.52
2023-08-06T23:35:25.599Z,0.60
2023-08-06T23:37:52.500Z,0.60
2023-08-06T23:40:21.672Z,0.50
2023-08-06T23:42:48.868Z,0.50
2023-08-06T23:45:15.878Z,0.70
2023-08-06T23:47:44.039Z,0.60
2023-08-06T23:50:11.221Z,0.80
2023-08-06T23:52:38.173Z,0.70
2023-08-06T23:55:05.549Z,0.90
2023-08-06T23:57:32.723Z,0.85
2023-08-06T23:59:59.789Z,0.95
